Time;durP1;ratioP1;P1;durP2;ratioP2;P2;SDS_P1;SDS_P2;PMS_P1;PMS_P2;Temp;Humidity;BMP_temperature;BMP_pressure;BME280_temperature;BME280_humidity;BME280_pressure;Samples;Min_cycle;Max_cycle;Signal;HPM_P1;HPM_P2
2021/07/25 00:01:00;;;;;;;73.03;47.50;;;;;;;16.87;89.24;101015.22;5031336;28;20118;-70
2021/07/25 00:03:26;;;;;;;66.60;46.22;;;;;;;16.87;89.66;101019.66;5043137;28;20025;-69
2021/07/25 00:05:51;;;;;;;68.70;45.28;;;;;;;16.84;89.22;100996.84;5045834;28;20028;-68
2021/07/25 00:08:16;;;;;;;74.63;46.70;;;;;;;16.83;89.54;101003.09;5046231;28;20029;-68
2021/07/25 00:10:44;;;;;;;75.60;47.28;;;;;;;16.78;89.31;100997.19;5042626;28;20518;-70
2021/07/25 00:13:10;;;;;;;76.35;48.88;;;;;;;16.77;89.61;100998.16;5038763;28;20151;-70
2021/07/25 00:15:36;;;;;;;78.60;49.22;;;;;;;16.78;89.92;100997.19;5041200;28;20575;-70
2021/07/25 00:18:02;;;;;;;75.38;49.08;;;;;;;16.80;90.15;100994.47;5032252;28;20036;-69
2021/07/25 00:20:27;;;;;;;79.82;51.17;;;;;;;16.85;90.09;101001.19;5035366;28;20390;-70
2021/07/25 00:22:53;;;;;;;80.28;50.60;;;;;;;16.86;90.15;101000.28;5034375;28;20025;-70
2021/07/25 00:25:19;;;;;;;80.07;48.53;;;;;;;16.86;89.66;100996.78;5035163;28;20060;-70
2021/07/25 00:27:45;;;;;;;72.78;46.75;;;;;;;16.84;89.93;100999.50;5039900;28;20021;-69
2021/07/25 00:30:12;;;;;;;77.63;48.63;;;;;;;16.85;89.96;100998.56;5039886;28;20026;-70
2021/07/25 00:32:41;;;;;;;73.68;48.08;;;;;;;16.86;90.03;101002.06;5027044;28;20489;-69
2021/07/25 00:35:07;;;;;;;68.10;44.83;;;;;;;16.90;89.37;101004.44;5027137;28;20104;-69
2021/07/25 00:37:33;;;;;;;68.55;46.25;;;;;;;16.95;89.42;101006.88;5042438;28;20624;-68
2021/07/25 00:39:58;;;;;;;72.20;46.00;;;;;;;17.01;89.39;101006.50;5044757;28;20142;-70
2021/07/25 00:42:24;;;;;;;81.70;51.35;;;;;;;17.14;89.88;101008.47;5041472;28;20043;-69
2021/07/25 00:44:49;;;;;;;75.15;50.58;;;;;;;17.19;89.62;101009.91;5026815;28;20108;-68
2021/07/25 00:47:15;;;;;;;72.97;48.28;;;;;;;17.22;88.98;101009.72;5040319;28;20108;-69
2021/07/25 00:49:40;;;;;;;74.65;47.58;;;;;;;17.25;88.72;101009.56;5030161;28;20107;-69
2021/07/25 00:52:07;;;;;;;74.05;49.00;;;;;;;17.26;88.51;101005.94;5033786;28;20025;-69
2021/07/25 00:54:34;;;;;;;74.57;47.90;;;;;;;17.31;88.48;101010.13;5042175;28;20019;-69
2021/07/25 00:56:59;;;;;;;72.68;49.40;;;;;;;17.31;88.12;100995.06;5044066;28;20021;-68
2021/07/25 00:59:25;;;;;;;76.22;50.03;;;;;;;17.31;88.26;100991.59;5037332;28;20429;-70
2021/07/25 01:01:52;;;;;;;70.90;48.20;;;;;;;17.30;88.29;100990.72;5029569;28;20465;-69
2021/07/25 01:04:43;;;;;;;81.63;51.50;;;;;;;17.31;88.09;100989.78;5024247;28;20108;-69
2021/07/25 01:07:16;;;;;;;74.68;50.80;;;;;;;17.34;88.25;100980.78;5043227;28;20512;-69
2021/07/25 01:09:58;;;;;;;82.18;51.90;;;;;;;17.32;88.06;100978.22;5030707;28;20476;-69
2021/07/25 01:12:46;;;;;;;72.03;48.60;;;;;;;17.34;88.33;100984.31;5043249;28;20147;-71
2021/07/25 01:15:18;;;;;;;71.43;49.22;;;;;;;17.34;88.47;100984.31;5025663;28;20482;-69
2021/07/25 01:17:43;;;;;;;76.47;52.03;;;;;;;17.32;88.45;100978.22;5037037;28;20041;-69
2021/07/25 01:20:10;;;;;;;77.32;50.25;;;;;;;17.35;88.32;100975.41;5034926;28;20426;-69
2021/07/25 01:22:38;;;;;;;76.60;51.20;;;;;;;17.34;88.48;100976.34;5034620;28;20033;-70
2021/07/25 01:25:05;;;;;;;78.63;50.85;;;;;;;17.37;88.17;100980.63;5038692;28;20065;-70
2021/07/25 01:27:35;;;;;;;74.65;50.97;;;;;;;17.39;88.05;100979.56;5036767;28;20029;-70
2021/07/25 01:30:04;;;;;;;81.45;52.40;;;;;;;17.39;88.39;100973.41;5041574;28;20029;-69
2021/07/25 01:32:31;;;;;;;71.10;49.25;;;;;;;17.42;88.20;100974.06;5038190;28;20021;-69
2021/07/25 01:34:58;;;;;;;78.35;50.13;;;;;;;17.41;88.21;100966.22;5040319;28;20071;-69
2021/07/25 01:37:25;;;;;;;73.78;49.25;;;;;;;17.41;87.95;100966.22;5032760;28;20403;-69
2021/07/25 01:39:51;;;;;;;69.68;46.88;;;;;;;17.45;87.59;100978.34;5044706;28;20021;-69
2021/07/25 01:42:36;;;;;;;74.88;48.58;;;;;;;17.46;87.61;100980.06;5040639;28;20040;-70
2021/07/25 01:45:03;;;;;;;67.85;45.63;;;;;;;17.44;87.25;100987.25;5024648;28;20208;-70
2021/07/25 01:47:29;;;;;;;72.88;48.70;;;;;;;17.41;87.13;100987.44;5042009;28;20016;-69
2021/07/25 01:49:54;;;;;;;72.40;49.08;;;;;;;17.40;87.45;100996.31;5038128;28;20021;-69
2021/07/25 01:52:20;;;;;;;78.25;48.45;;;;;;;17.35;87.92;100983.38;5033921;28;20021;-69
2021/07/25 01:54:45;;;;;;;79.38;50.20;;;;;;;17.31;87.98;100996.88;5050194;28;20547;-70
2021/07/25 01:57:10;;;;;;;81.97;50.47;;;;;;;17.27;88.22;100990.91;5041971;28;20027;-70
2021/07/25 01:59:36;;;;;;;78.60;50.40;;;;;;;17.24;88.27;100994.59;5032654;28;20021;-70
2021/07/25 02:02:01;;;;;;;72.82;46.47;;;;;;;17.24;88.12;100991.94;5040097;28;20024;-70
2021/07/25 02:04:27;;;;;;;76.80;49.63;;;;;;;17.24;88.42;100986.63;5041831;28;20020;-70
2021/07/25 02:06:52;;;;;;;81.38;51.85;;;;;;;17.22;88.42;100983.22;5036768;28;20029;-69
2021/07/25 02:09:18;;;;;;;69.25;44.88;;;;;;;17.20;88.40;100971.84;5042276;28;20025;-69
2021/07/25 02:11:43;;;;;;;72.75;49.67;;;;;;;17.20;88.25;100973.66;5036644;28;20068;-69
2021/07/25 02:14:09;;;;;;;73.47;49.58;;;;;;;17.19;88.48;100972.81;5042415;28;20143;-69
2021/07/25 02:16:53;;;;;;;76.22;49.38;;;;;;;17.18;88.75;100968.44;5035299;28;20037;-69
2021/07/25 02:19:18;;;;;;;;;;;;;;;17.10;88.99;100971.56;5030372;28;20156;-69
2021/07/25 02:21:43;;;;;;;77.50;47.73;;;;;;;17.08;88.63;100968.13;5027880;28;19912;-69
2021/07/25 02:24:09;;;;;;;75.78;50.30;;;;;;;17.04;88.85;100963.09;5044965;28;20368;-69
2021/07/25 02:26:34;;;;;;;72.47;47.20;;;;;;;17.03;89.21;100954.28;5044395;28;20024;-69
2021/07/25 02:28:59;;;;;;;79.60;49.40;;;;;;;17.02;89.25;100954.41;5047188;28;20127;-69
2021/07/25 02:31:25;;;;;;;84.18;51.20;;;;;;;16.97;89.04;100956.44;5040495;28;20025;-69
2021/07/25 02:33:50;;;;;;;79.50;50.35;;;;;;;16.94;89.67;100957.47;5033316;28;20028;-69
2021/07/25 02:36:15;;;;;;;79.85;50.78;;;;;;;16.89;89.54;100949.78;5042649;28;20021;-69
2021/07/25 02:38:40;;;;;;;85.05;52.05;;;;;;;16.89;89.47;100949.78;5032999;28;20038;-70
2021/07/25 02:41:06;;;;;;;83.18;51.28;;;;;;;16.91;89.42;100953.19;5043124;28;20458;-68
2021/07/25 02:43:31;;;;;;;78.50;47.80;;;;;;;16.92;89.31;100944.31;5042897;28;20110;-69
2021/07/25 02:45:57;;;;;;;72.43;47.08;;;;;;;16.92;89.31;100941.66;5048704;28;20375;-69
2021/07/25 02:48:23;;;;;;;77.13;50.22;;;;;;;16.90;89.59;100932.91;5037564;28;20030;-69
2021/07/25 02:50:48;;;;;;;81.32;50.95;;;;;;;16.91;89.60;100937.31;5035090;28;20516;-69
2021/07/25 02:53:13;;;;;;;73.43;48.35;;;;;;;16.93;89.55;100931.91;5029265;28;20133;-69
2021/07/25 02:55:39;;;;;;;73.63;46.63;;;;;;;16.93;89.33;100924.84;5043557;28;20442;-69
2021/07/25 02:58:04;;;;;;;70.20;45.90;;;;;;;16.93;89.33;100927.47;5035136;28;20033;-69
2021/07/25 03:00:29;;;;;;;74.82;48.47;;;;;;;16.93;89.28;100927.47;5046904;28;20028;-69
2021/07/25 03:02:56;;;;;;;82.18;48.97;;;;;;;16.94;89.32;100925.66;5045235;28;20021;-70
2021/07/25 03:05:22;;;;;;;73.72;46.03;;;;;;;16.94;89.57;100931.84;5036484;28;20034;-69
2021/07/25 03:07:48;;;;;;;64.07;42.80;;;;;;;16.95;89.31;100922.09;5033577;28;20033;-70
2021/07/25 03:10:13;;;;;;;78.30;45.85;;;;;;;16.97;89.06;100920.22;5038263;28;20082;-69
2021/07/25 03:12:38;;;;;;;67.95;43.75;;;;;;;17.00;88.82;100935.91;5043980;28;20037;-69
2021/07/25 03:15:04;;;;;;;58.13;39.85;;;;;;;17.03;88.78;100932.22;5034996;28;20013;-70
2021/07/25 03:17:30;;;;;;;50.40;34.42;;;;;;;17.03;88.15;100933.09;5044366;28;20437;-69
2021/07/25 03:19:55;;;;;;;48.63;32.55;;;;;;;17.08;87.73;100938.97;5032536;28;20028;-70
2021/07/25 03:22:22;;;;;;;46.50;32.70;;;;;;;17.14;87.30;100940.44;5045565;28;20028;-70
2021/07/25 03:24:47;;;;;;;43.88;31.98;;;;;;;17.20;86.38;100947.16;5035946;28;20026;-70
2021/07/25 03:27:12;;;;;;;42.60;30.98;;;;;;;17.22;86.18;100946.09;5039163;28;20029;-70
2021/07/25 03:29:38;;;;;;;37.65;27.40;;;;;;;17.23;86.24;100947.81;5047027;28;20056;-70
2021/07/25 03:32:04;;;;;;;44.05;28.40;;;;;;;17.26;85.94;100952.91;5047271;28;20096;-70
2021/07/25 03:34:32;;;;;;;39.60;28.90;;;;;;;17.25;86.23;100945.06;5040464;28;20401;-68
2021/07/25 03:36:58;;;;;;;39.78;29.98;;;;;;;17.22;86.23;100946.09;5047176;28;20028;-69
2021/07/25 03:39:24;;;;;;;45.70;31.23;;;;;;;17.23;86.18;100946.97;5046371;28;20032;-69
2021/07/25 03:41:50;;;;;;;46.92;32.92;;;;;;;17.17;86.46;100950.84;5046166;28;20476;-69
2021/07/25 03:44:16;;;;;;;46.25;33.20;;;;;;;17.08;87.43;100943.44;5037187;28;20032;-69
2021/07/25 03:46:41;;;;;;;49.67;33.63;;;;;;;17.02;87.71;100934.03;5040745;28;20104;-69
2021/07/25 03:49:08;;;;;;;45.17;32.28;;;;;;;16.97;87.86;100932.59;5038028;28;20108;-69
2021/07/25 03:51:33;;;;;;;57.20;36.05;;;;;;;16.91;88.16;100925.84;5030127;28;20037;-70
2021/07/25 03:53:58;;;;;;;52.67;34.75;;;;;;;16.87;88.23;100930.47;5032434;28;20025;-69
2021/07/25 03:56:24;;;;;;;49.97;33.25;;;;;;;16.85;88.12;100932.31;5029691;28;20021;-69
2021/07/25 03:58:49;;;;;;;50.95;35.00;;;;;;;16.80;87.94;100923.81;5026704;28;20112;-69
2021/07/25 04:01:14;;;;;;;49.25;34.83;;;;;;;16.77;88.53;100921.34;5029356;28;20104;-69
2021/07/25 04:03:40;;;;;;;54.55;37.25;;;;;;;16.73;88.41;100919.78;5028828;28;20066;-69
2021/07/25 04:06:05;;;;;;;55.15;35.10;;;;;;;16.71;88.70;100919.06;5031593;28;20026;-69
2021/07/25 04:08:30;;;;;;;50.90;32.60;;;;;;;16.69;88.42;100915.63;5035103;28;20025;-70
2021/07/25 04:10:56;;;;;;;48.55;31.85;;;;;;;16.67;88.68;100915.72;5042768;28;20025;-70
2021/07/25 04:13:21;;;;;;;43.38;27.60;;;;;;;16.68;88.45;100919.22;5033965;28;20036;-70
2021/07/25 04:15:47;;;;;;;39.60;26.83;;;;;;;16.73;87.86;100917.16;5032766;28;20029;-70
2021/07/25 04:18:13;;;;;;;36.95;26.05;;;;;;;16.77;87.74;100918.69;5026602;28;20485;-69
2021/07/25 04:20:38;;;;;;;38.80;26.42;;;;;;;16.81;88.00;100912.28;5029618;28;20033;-70
2021/07/25 04:23:03;;;;;;;40.85;27.90;;;;;;;16.85;87.46;100912.94;5029483;28;20053;-70
2021/07/25 04:25:30;;;;;;;47.95;28.77;;;;;;;16.86;87.98;100912.00;5026722;28;20115;-69
2021/07/25 04:27:59;;;;;;;36.75;25.27;;;;;;;16.89;87.63;100911.81;5031621;28;20025;-69
2021/07/25 04:30:28;;;;;;;33.20;22.85;;;;;;;16.97;86.73;100911.41;5036288;28;20025;-69
2021/07/25 04:32:54;;;;;;;30.40;21.23;;;;;;;17.01;86.07;100916.44;5036563;28;20041;-70
2021/07/25 04:35:20;;;;;;;29.40;19.85;;;;;;;17.03;85.48;100913.69;5035629;28;20033;-69
2021/07/25 04:37:49;;;;;;;28.15;20.55;;;;;;;17.03;85.46;100916.34;5026911;28;20394;-69
2021/07/25 04:40:16;;;;;;;29.45;20.40;;;;;;;17.05;85.76;100917.09;5031182;28;20113;-69
2021/07/25 04:42:51;;;;;;;26.98;18.65;;;;;;;17.06;84.90;100918.81;5040956;28;20053;-69
2021/07/25 04:45:24;;;;;;;18.83;14.68;;;;;;;17.14;83.22;100919.22;5028316;28;20025;-69
2021/07/25 04:48:02;;;;;;;24.65;15.23;;;;;;;17.18;83.48;100906.63;5034235;28;20078;-69
2021/07/25 04:50:37;;;;;;;23.95;15.00;;;;;;;17.19;83.85;100910.97;5038128;28;20446;-69
2021/07/25 04:53:04;;;;;;;24.65;18.13;;;;;;;17.19;84.41;100919.81;5036826;28;20018;-70
2021/07/25 04:55:33;;;;;;;25.63;18.05;;;;;;;17.19;84.40;100925.09;5038768;28;20469;-69
2021/07/25 04:58:07;;;;;;;24.90;17.67;;;;;;;17.18;84.35;100928.69;5046093;28;20029;-69
2021/07/25 05:00:33;;;;;;;23.75;16.23;;;;;;;17.17;83.75;100932.28;5035270;28;20091;-69
2021/07/25 05:03:03;;;;;;;24.65;14.43;;;;;;;17.23;83.83;100926.63;5036846;28;20476;-70
2021/07/25 05:05:29;;;;;;;26.08;14.88;;;;;;;17.27;83.30;100919.34;5030830;28;20029;-70
2021/07/25 05:07:59;;;;;;;21.20;14.18;;;;;;;17.30;83.20;100905.88;5044356;28;20025;-70
2021/07/25 05:10:24;;;;;;;21.50;13.55;;;;;;;17.32;82.82;100909.31;5038469;28;20063;-70
2021/07/25 05:13:05;;;;;;;19.23;13.65;;;;;;;17.35;82.95;100919.75;5031146;28;20379;-70
2021/07/25 05:15:33;;;;;;;14.98;11.55;;;;;;;17.37;82.57;100922.28;5034156;28;20021;-70
2021/07/25 05:18:08;;;;;;;18.67;11.40;;;;;;;17.36;82.50;100931.19;5044538;28;20027;-70
2021/07/25 05:20:55;;;;;;;16.52;11.90;;;;;;;17.42;82.04;100936.97;5045033;28;20102;-70
2021/07/25 05:23:32;;;;;;;17.58;11.65;;;;;;;17.45;81.63;100937.72;5033805;28;20031;-70
2021/07/25 05:25:58;;;;;;;19.17;11.75;;;;;;;17.43;82.10;100932.53;5045424;28;20040;-70
2021/07/25 05:28:25;;;;;;;17.38;10.43;;;;;;;17.45;81.70;100938.56;5039047;28;20057;-70
2021/07/25 05:30:53;;;;;;;15.30;10.15;;;;;;;17.46;82.01;100934.13;5042494;28;20132;-70
2021/07/25 05:33:19;;;;;;;14.60;9.52;;;;;;;17.49;81.67;100925.97;5050139;28;20100;-68
2021/07/25 05:35:45;;;;;;;14.88;10.30;;;;;;;17.54;82.06;100923.94;5036455;28;20028;-69
2021/07/25 05:38:10;;;;;;;16.83;11.10;;;;;;;17.57;81.88;100937.81;5030204;28;20021;-70
2021/07/25 05:40:36;;;;;;;16.58;10.02;;;;;;;17.57;81.38;100934.34;5040046;28;20469;-69
2021/07/25 05:43:01;;;;;;;14.40;9.77;;;;;;;17.63;81.71;100933.13;5050119;28;20037;-69
2021/07/25 05:45:26;;;;;;;17.90;10.20;;;;;;;17.66;81.77;100939.09;5050009;28;20192;-70
2021/07/25 05:47:52;;;;;;;16.63;11.10;;;;;;;17.65;81.48;100933.84;5034302;28;20390;-70
2021/07/25 05:50:17;;;;;;;16.10;10.40;;;;;;;17.69;80.65;100941.53;5035287;28;20020;-70
2021/07/25 05:52:50;;;;;;;14.02;10.30;;;;;;;17.78;81.75;100937.47;5042329;28;20028;-70
2021/07/25 05:55:23;;;;;;;17.70;9.77;;;;;;;17.86;80.76;100932.56;5045177;28;20382;-70
2021/07/25 05:57:49;;;;;;;15.27;10.30;;;;;;;17.96;80.71;100934.66;5050870;28;20143;-70
2021/07/25 06:00:15;;;;;;;17.25;10.45;;;;;;;18.01;80.39;100933.44;5046696;28;20111;-70
2021/07/25 06:03:00;;;;;;;13.30;9.90;;;;;;;18.06;79.82;100930.50;5034637;28;20159;-71
2021/07/25 06:05:33;;;;;;;16.48;9.15;;;;;;;18.07;80.13;100934.81;5043677;28;20029;-70
2021/07/25 06:07:59;;;;;;;13.80;9.35;;;;;;;18.13;79.65;100931.78;5030424;28;20022;-71
2021/07/25 06:10:30;;;;;;;15.60;9.63;;;;;;;18.19;79.79;100942.00;5029851;28;20426;-71
2021/07/25 06:12:56;;;;;;;13.38;10.38;;;;;;;18.28;79.62;100945.88;5029505;28;20028;-70
2021/07/25 06:15:22;;;;;;;14.63;10.45;;;;;;;18.33;79.16;100941.16;5030563;28;20394;-70
2021/07/25 06:17:48;;;;;;;14.68;8.93;;;;;;;18.42;79.31;100946.81;5029799;28;20025;-69
2021/07/25 06:20:13;;;;;;;22.48;10.48;;;;;;;18.48;78.25;100944.63;5029348;28;20029;-70
2021/07/25 06:22:46;;;;;;;15.57;10.27;;;;;;;18.47;78.92;100944.69;5036634;28;20021;-70
2021/07/25 06:25:13;;;;;;;17.88;11.57;;;;;;;18.45;78.73;100946.63;5049926;28;20375;-70
2021/07/25 06:27:39;;;;;;;18.25;10.68;;;;;;;18.49;78.88;100941.03;5048462;28;20055;-70
2021/07/25 06:30:06;;;;;;;16.00;11.35;;;;;;;18.65;78.92;100945.31;5046768;28;20029;-70
2021/07/25 06:32:31;;;;;;;19.58;12.35;;;;;;;18.72;77.79;100938.66;5048311;28;21508;-70
2021/07/25 06:34:56;;;;;;;17.38;10.93;;;;;;;18.97;77.56;100937.91;5046806;28;20028;-70
2021/07/25 06:37:22;;;;;;;14.25;10.90;;;;;;;19.14;77.22;100934.13;5032079;28;20030;-70
2021/07/25 06:39:47;;;;;;;16.75;10.85;;;;;;;19.26;76.59;100939.56;5029238;28;20433;-70
2021/07/25 06:42:12;;;;;;;15.68;11.13;;;;;;;19.50;75.68;100937.03;5028563;28;20429;-71
2021/07/25 06:44:37;;;;;;;18.30;12.35;;;;;;;19.62;75.46;100937.97;5028883;28;20474;-70
2021/07/25 06:47:03;;;;;;;18.83;13.00;;;;;;;19.55;74.61;100939.34;5029417;28;20033;-69
2021/07/25 06:49:28;;;;;;;19.65;13.75;;;;;;;19.44;75.14;100932.16;5028714;28;20033;-70
2021/07/25 06:51:54;;;;;;;21.55;12.90;;;;;;;19.57;75.09;100937.44;5038132;28;20021;-69
2021/07/25 06:54:19;;;;;;;18.63;13.77;;;;;;;19.54;75.33;100932.34;5048688;28;20040;-69
2021/07/25 06:56:44;;;;;;;20.38;12.93;;;;;;;19.74;74.77;100930.97;5047580;28;20029;-70
2021/07/25 06:59:09;;;;;;;19.83;13.75;;;;;;;19.82;74.05;100924.13;5048747;28;20029;-69
2021/07/25 07:01:35;;;;;;;25.33;14.00;;;;;;;19.81;74.04;100919.78;5043123;28;20112;-69
2021/07/25 07:04:00;;;;;;;19.90;12.52;;;;;;;19.90;74.44;100928.09;5042045;28;20053;-69
2021/07/25 07:06:25;;;;;;;18.90;12.25;;;;;;;20.07;73.74;100919.75;5043810;28;20036;-69
2021/07/25 07:08:51;;;;;;;19.65;12.95;;;;;;;20.01;73.16;100917.53;5039084;28;20032;-71
2021/07/25 07:11:16;;;;;;;20.40;14.18;;;;;;;20.07;73.12;100922.41;5034077;28;20024;-70
2021/07/25 07:13:42;;;;;;;22.48;13.43;;;;;;;19.93;73.71;100927.88;5032611;28;20041;-70
2021/07/25 07:16:07;;;;;;;18.92;13.35;;;;;;;20.02;73.92;100934.34;5035167;28;20036;-69
2021/07/25 07:18:32;;;;;;;19.13;13.05;;;;;;;20.16;73.91;100929.72;5038682;28;20470;-69
2021/07/25 07:20:57;;;;;;;20.55;12.55;;;;;;;20.54;73.08;100927.91;5030774;28;20486;-70
2021/07/25 07:23:25;;;;;;;20.23;12.45;;;;;;;20.77;71.89;100934.22;5042058;28;20029;-70
2021/07/25 07:25:51;;;;;;;20.92;13.20;;;;;;;21.07;72.23;100938.22;5045827;28;20074;-69
2021/07/25 07:28:18;;;;;;;19.75;12.20;;;;;;;21.35;70.01;100937.94;5046200;28;20577;-69
2021/07/25 07:30:45;;;;;;;19.00;13.38;;;;;;;21.57;69.32;100929.13;5043917;28;20025;-70
2021/07/25 07:33:12;;;;;;;17.42;11.73;;;;;;;21.68;70.19;100934.50;5045661;28;20025;-70
2021/07/25 07:35:38;;;;;;;21.88;13.27;;;;;;;21.83;68.08;100939.56;5034999;28;20017;-70
2021/07/25 07:38:22;;;;;;;21.88;13.10;;;;;;;21.95;67.48;100941.28;5045314;28;20028;-70
2021/07/25 07:40:47;;;;;;;20.20;12.68;;;;;;;22.15;66.79;100937.00;5046176;28;20045;-70
2021/07/25 07:43:14;;;;;;;19.98;12.50;;;;;;;22.30;67.42;100937.63;5045016;28;20502;-69
2021/07/25 07:45:41;;;;;;;15.80;12.27;;;;;;;22.45;66.33;100935.53;5045458;28;20037;-69
2021/07/25 07:48:07;;;;;;;24.13;13.20;;;;;;;22.37;65.98;100945.97;5045865;28;20108;-70
2021/07/25 07:50:32;;;;;;;21.30;13.40;;;;;;;22.24;66.87;100946.13;5047506;28;20029;-70
2021/07/25 07:53:00;;;;;;;19.73;12.73;;;;;;;22.18;66.59;100944.78;5043146;28;20021;-69
2021/07/25 07:55:26;;;;;;;18.50;11.85;;;;;;;22.37;67.17;100946.84;5044825;28;20481;-69
2021/07/25 07:57:51;;;;;;;21.52;13.40;;;;;;;22.30;67.18;100947.44;5047043;28;20101;-70
2021/07/25 08:00:16;;;;;;;20.42;11.77;;;;;;;22.49;67.30;100949.47;5045936;28;20032;-70
2021/07/25 08:02:43;;;;;;;19.98;12.10;;;;;;;22.59;66.09;100937.06;5045566;28;20104;-70
2021/07/25 08:05:09;;;;;;;17.50;10.90;;;;;;;22.73;66.21;100942.09;5032736;28;20466;-70
2021/07/25 08:07:34;;;;;;;19.58;10.93;;;;;;;23.07;64.98;100935.78;5046520;28;20037;-70
2021/07/25 08:09:59;;;;;;;15.55;10.35;;;;;;;23.35;62.90;100933.44;5039519;28;20536;-70
2021/07/25 08:12:25;;;;;;;17.55;10.25;;;;;;;23.39;63.13;100940.22;5043358;28;20428;-70
2021/07/25 08:14:50;;;;;;;19.42;10.65;;;;;;;23.41;61.91;100948.16;5044759;28;20013;-70
2021/07/25 08:17:15;;;;;;;14.77;10.55;;;;;;;23.77;61.40;100943.25;5041153;28;20029;-70
2021/07/25 08:19:41;;;;;;;17.77;11.07;;;;;;;24.01;60.58;100941.13;5044163;28;20028;-70
2021/07/25 08:22:07;;;;;;;16.85;11.25;;;;;;;24.33;60.49;100940.06;5044796;28;20059;-70
2021/07/25 08:24:36;;;;;;;18.73;9.90;;;;;;;25.00;58.24;100941.28;5042729;28;20021;-70
2021/07/25 08:27:02;;;;;;;15.23;10.02;;;;;;;25.56;55.75;100947.72;5043397;28;20036;-70
2021/07/25 08:29:27;;;;;;;16.75;10.38;;;;;;;25.21;54.85;100933.91;5042501;28;20078;-70
2021/07/25 08:31:53;;;;;;;19.17;10.93;;;;;;;25.42;55.45;100943.66;5044576;28;20029;-70
2021/07/25 08:34:18;;;;;;;16.83;10.93;;;;;;;25.91;52.92;100938.97;5044578;28;20017;-71
2021/07/25 08:39:28;;;;;;;17.02;11.60;;;;;;;26.22;53.49;100944.06;5041016;28;20131;-70
2021/07/25 08:42:07;;;;;;;19.80;12.75;;;;;;;25.74;54.23;100947.81;5040071;28;20028;-70
2021/07/25 08:44:41;;;;;;;18.35;11.38;;;;;;;25.77;54.75;100945.63;5044605;28;20028;-70
2021/07/25 08:47:25;;;;;;;19.25;12.35;;;;;;;25.47;55.94;100954.81;5044864;28;20064;-70
2021/07/25 08:49:58;;;;;;;14.65;10.60;;;;;;;25.45;52.80;100944.22;5044703;28;20024;-70
2021/07/25 08:52:28;;;;;;;;;;;;;;;25.02;53.72;100950.03;5043447;28;20072;-70
2021/07/25 08:54:55;;;;;;;12.48;7.28;;;;;;;24.72;52.67;100954.56;5044560;28;20309;-70
2021/07/25 08:57:23;;;;;;;12.50;9.50;;;;;;;24.42;53.94;100948.28;5045228;28;20606;-69
2021/07/25 08:59:51;;;;;;;15.00;9.20;;;;;;;24.29;53.92;100953.91;5045603;28;20024;-69
2021/07/25 09:02:19;;;;;;;14.50;8.50;;;;;;;24.71;54.03;100951.03;5049485;28;20017;-70
2021/07/25 09:04:46;;;;;;;16.23;10.32;;;;;;;24.94;56.96;100958.78;5044922;28;20020;-70
2021/07/25 09:07:12;;;;;;;17.30;9.82;;;;;;;25.68;54.57;100953.75;5042324;28;20552;-69
2021/07/25 09:09:37;;;;;;;18.23;10.65;;;;;;;25.86;52.46;100960.06;5042045;28;20065;-69
2021/07/25 09:12:03;;;;;;;16.38;10.52;;;;;;;26.14;51.33;100957.41;5047599;28;20111;-70
2021/07/25 09:14:28;;;;;;;19.63;11.20;;;;;;;25.73;51.72;100960.38;5037210;28;20053;-70
2021/07/25 09:16:53;;;;;;;18.20;10.48;;;;;;;25.29;52.64;100965.38;5045045;28;20017;-70
2021/07/25 09:19:19;;;;;;;15.75;9.88;;;;;;;25.32;52.81;100957.06;5047043;28;20044;-71
2021/07/25 09:21:52;;;;;;;18.15;10.30;;;;;;;25.74;52.51;100962.06;5048487;28;20140;-70
2021/07/25 09:24:22;;;;;;;16.90;10.30;;;;;;;25.65;50.80;100968.34;5047819;28;20060;-70
2021/07/25 09:26:56;;;;;;;17.50;10.80;;;;;;;25.57;51.94;100965.53;5041335;28;20029;-69
2021/07/25 09:29:26;;;;;;;17.08;11.13;;;;;;;25.44;52.86;100971.19;5047608;28;20025;-70
2021/07/25 09:32:08;;;;;;;19.13;11.23;;;;;;;25.13;53.62;100974.03;5046891;28;20017;-70
2021/07/25 09:34:38;;;;;;;16.15;10.15;;;;;;;25.01;53.14;100975.19;5043536;28;20029;-68
2021/07/25 09:37:09;;;;;;;15.55;9.38;;;;;;;25.14;51.40;100975.72;5036697;28;20033;-70
2021/07/25 09:39:38;;;;;;;14.07;9.73;;;;;;;25.77;52.14;100977.03;5046883;28;20036;-69
2021/07/25 09:42:05;;;;;;;18.95;11.60;;;;;;;26.30;49.85;100977.41;5047027;28;20111;-69
2021/07/25 09:44:44;;;;;;;20.77;10.68;;;;;;;26.79;48.25;100969.88;5049467;28;20025;-69
2021/07/25 09:47:44;;;;;;;16.20;8.75;;;;;;;27.54;46.08;100972.16;5047085;28;20029;-69
2021/07/25 09:50:10;;;;;;;19.85;12.02;;;;;;;27.85;45.85;100974.38;5048304;28;20025;-69
2021/07/25 09:52:37;;;;;;;17.27;11.05;;;;;;;28.30;45.86;100966.16;5042600;28;20033;-69
2021/07/25 09:55:05;;;;;;;18.48;12.20;;;;;;;29.36;45.34;100961.06;5033823;28;20096;-69
2021/07/25 09:57:31;;;;;;;22.60;16.02;;;;;;;29.25;45.84;100965.78;5027429;28;20037;-70
2021/07/25 10:00:06;;;;;;;25.75;16.60;;;;;;;28.49;47.14;100970.41;5029699;28;20063;-69
2021/07/25 10:02:41;;;;;;;24.67;16.17;;;;;;;28.08;49.21;100978.38;5042034;28;20025;-69
2021/07/25 10:05:09;;;;;;;20.65;15.18;;;;;;;27.51;50.26;100971.63;5037296;28;20024;-69
2021/07/25 10:07:35;;;;;;;24.98;17.10;;;;;;;26.86;52.54;100967.41;5033093;28;20053;-69
2021/07/25 10:10:20;;;;;;;26.33;15.13;;;;;;;27.19;50.63;100968.53;5015246;28;20049;-69
2021/07/25 10:12:46;;;;;;;25.50;16.98;;;;;;;27.82;50.52;100969.31;5043009;28;20031;-69
2021/07/25 10:15:16;;;;;;;23.00;13.75;;;;;;;28.06;48.37;100969.59;5044116;28;20100;-69
2021/07/25 10:17:43;;;;;;;21.20;14.35;;;;;;;28.30;47.47;100972.38;5042844;28;20044;-69
2021/07/25 10:20:10;;;;;;;27.17;17.20;;;;;;;28.08;47.80;100976.50;5027800;28;20026;-69
2021/07/25 10:22:39;;;;;;;26.65;17.67;;;;;;;27.47;49.29;100970.28;5027978;28;20672;-69
2021/07/25 10:25:18;;;;;;;28.98;18.05;;;;;;;26.91;50.88;100970.50;5027736;28;20060;-69
2021/07/25 10:27:48;;;;;;;28.95;19.42;;;;;;;26.17;53.06;100964.31;5028607;28;20445;-69
2021/07/25 10:30:14;;;;;;;26.48;19.20;;;;;;;26.28;54.11;100966.78;5027673;28;20022;-69
2021/07/25 10:32:42;;;;;;;26.05;18.08;;;;;;;26.61;52.36;100966.28;5033484;28;20104;-69
2021/07/25 10:35:09;;;;;;;28.15;20.23;;;;;;;26.46;52.54;100964.16;5034872;28;20029;-69
2021/07/25 10:37:40;;;;;;;29.73;19.70;;;;;;;26.76;52.16;100961.28;5042574;28;20477;-69
2021/07/25 10:40:10;;;;;;;29.88;20.15;;;;;;;27.20;50.93;100967.53;5027792;28;20047;-69
2021/07/25 10:42:50;;;;;;;32.58;21.60;;;;;;;28.29;48.26;100959.94;5044950;28;20040;-69
2021/07/25 10:45:16;;;;;;;34.55;21.17;;;;;;;28.31;46.43;100957.06;5047762;28;20484;-69
2021/07/25 10:47:44;;;;;;;32.78;19.65;;;;;;;27.36;49.37;100964.13;5047335;28;20025;-69
2021/07/25 10:50:15;;;;;;;33.35;22.08;;;;;;;26.44;51.22;100968.81;5046017;28;20089;-68
2021/07/25 10:55:34;;;;;;;42.33;23.73;;;;;;;25.31;56.57;100971.47;5048643;28;20028;-69
2021/07/25 10:58:01;;;;;;;32.20;21.83;;;;;;;26.60;54.01;100968.16;5046990;28;20059;-69
2021/07/25 11:00:40;;;;;;;31.50;21.80;;;;;;;27.81;49.70;100983.78;5047630;28;20024;-70
2021/07/25 11:03:06;;;;;;;32.08;22.08;;;;;;;28.34;47.67;100970.19;5048791;28;20028;-70
2021/07/25 11:05:31;;;;;;;27.70;21.65;;;;;;;29.00;46.22;100973.06;5049367;28;20029;-70
2021/07/25 11:07:58;;;;;;;28.17;20.83;;;;;;;29.50;46.88;100967.59;5049057;28;20029;-70
2021/07/25 11:10:34;;;;;;;34.10;23.08;;;;;;;30.56;45.12;100969.09;5047972;28;20064;-69
2021/07/25 11:13:00;;;;;;;42.08;23.85;;;;;;;30.70;43.48;100974.72;5048876;28;20025;-70
2021/07/25 11:15:28;;;;;;;26.17;18.58;;;;;;;31.32;41.94;100965.63;5049039;28;20074;-70
2021/07/25 11:17:54;;;;;;;29.25;20.63;;;;;;;30.77;41.90;100956.75;5041807;28;20056;-69